Time;durP1;ratioP1;P1;durP2;ratioP2;P2;SDS_P1;SDS_P2;PMS_P1;PMS_P2;Temp;Humidity;BMP_temperature;BMP_pressure;BME280_temperature;BME280_humidity;BME280_pressure;Samples;Min_cycle;Max_cycle;Signal;HPM_P1;HPM_P2
2021/05/13 00:00:38;;;;;;;18.77;14.32;;;;;;;;;;2080836;28;20547;-54
2021/05/13 00:01:38;;;;;;;18.27;13.18;;;;;;;;;;2087754;28;20525;-56
2021/05/13 00:02:39;;;;;;;17.17;13.15;;;;;;;;;;2085405;28;20922;-55
2021/05/13 00:03:39;;;;;;;11.55;9.75;;;;;;;;;;2089093;28;20207;-56
2021/05/13 00:04:40;;;;;;;12.85;8.98;;;;;;;;;;2100257;22;20553;-57
2021/05/13 00:05:40;;;;;;;16.05;9.88;;;;;;;;;;2075757;28;20230;-60
2021/05/13 00:06:40;;;;;;;19.08;12.32;;;;;;;;;;2079659;28;20247;-59
2021/05/13 00:07:41;;;;;;;15.55;10.45;;;;;;;;;;2080919;28;20224;-57
2021/05/13 00:08:42;;;;;;;13.88;11.48;;;;;;;;;;2088480;28;20195;-61
2021/05/13 00:09:44;;;;;;;12.35;9.63;;;;;;;;;;2088900;28;20523;-61
2021/05/13 00:10:44;;;;;;;15.95;10.70;;;;;;;;;;2082426;28;20187;-60
2021/05/13 00:11:47;;;;;;;15.70;10.43;;;;;;;;;;2081620;28;20807;-58
2021/05/13 00:13:02;;;;;;;10.98;9.80;;;;;;;;;;2080025;28;20168;-59
2021/05/13 00:14:03;;;;;;;11.40;10.20;;;;;;;;;;2080823;28;20222;-59
2021/05/13 00:15:05;;;;;;;13.02;9.90;;;;;;;;;;2074694;28;20192;-60
2021/05/13 00:16:06;;;;;;;11.38;8.77;;;;;;;;;;2075784;28;20165;-60
2021/05/13 00:17:07;;;;;;;9.65;8.50;;;;;;;;;;2082144;28;20190;-57
2021/05/13 00:18:08;;;;;;;11.50;9.27;;;;;;;;;;2083122;28;20211;-59
2021/05/13 00:19:11;;;;;;;11.77;9.68;;;;;;;;;;2083022;28;20188;-60
2021/05/13 00:20:12;;;;;;;12.38;9.30;;;;;;;;;;2081895;28;20164;-59
2021/05/13 00:21:12;;;;;;;12.55;9.98;;;;;;;;;;2081949;28;20225;-61
2021/05/13 00:22:13;;;;;;;14.35;9.18;;;;;;;;;;2081726;28;20273;-59
2021/05/13 00:23:13;;;;;;;11.38;10.30;;;;;;;;;;2086330;28;20176;-58
2021/05/13 00:24:14;;;;;;;13.55;9.60;;;;;;;;;;2080019;28;20825;-59
2021/05/13 00:25:15;;;;;;;10.38;9.05;;;;;;;;;;2085009;28;20180;-59
2021/05/13 00:26:15;;;;;;;12.07;9.25;;;;;;;;;;2092434;28;20202;-59
2021/05/13 00:27:16;;;;;;;10.85;9.35;;;;;;;;;;2082512;28;20183;-60
2021/05/13 00:28:16;;;;;;;14.93;9.57;;;;;;;;;;2082193;28;20287;-60
2021/05/13 00:29:21;;;;;;;14.00;10.18;;;;;;;;;;2083175;28;20184;-59
2021/05/13 00:30:22;;;;;;;11.85;9.73;;;;;;;;;;2086010;28;20168;-53
2021/05/13 00:31:22;;;;;;;14.13;10.88;;;;;;;;;;2082557;28;20691;-58
2021/05/13 00:32:22;;;;;;;15.25;10.15;;;;;;;;;;2082507;28;20623;-59
2021/05/13 00:33:23;;;;;;;10.18;9.20;;;;;;;;;;2082242;28;20178;-59
2021/05/13 00:34:23;;;;;;;12.27;9.57;;;;;;;;;;2086263;28;20180;-61
2021/05/13 00:35:23;;;;;;;13.48;9.07;;;;;;;;;;2083275;28;20203;-61
2021/05/13 00:36:23;;;;;;;11.50;9.02;;;;;;;;;;2090643;28;20176;-60
2021/05/13 00:37:23;;;;;;;15.20;10.05;;;;;;;;;;2087080;28;20176;-61
2021/05/13 00:38:24;;;;;;;11.88;10.60;;;;;;;;;;2081937;28;20200;-60
2021/05/13 00:39:24;;;;;;;14.45;9.60;;;;;;;;;;2091489;28;20175;-58
2021/05/13 00:40:24;;;;;;;14.55;9.65;;;;;;;;;;2094061;28;20671;-56
2021/05/13 00:41:25;;;;;;;12.70;11.00;;;;;;;;;;2082824;28;20251;-61
2021/05/13 00:42:25;;;;;;;14.73;11.38;;;;;;;;;;2079809;28;20176;-60
2021/05/13 00:43:25;;;;;;;14.90;11.57;;;;;;;;;;2082298;28;20287;-60
2021/05/13 00:44:26;;;;;;;20.45;13.30;;;;;;;;;;2082187;28;20168;-58
2021/05/13 00:45:28;;;;;;;21.33;12.32;;;;;;;;;;2079373;28;20205;-58
2021/05/13 00:46:30;;;;;;;19.15;12.15;;;;;;;;;;2083413;28;20542;-60
2021/05/13 00:47:30;;;;;;;21.65;15.70;;;;;;;;;;2076851;28;20228;-59
2021/05/13 00:48:34;;;;;;;22.00;17.88;;;;;;;;;;2073909;28;20177;-59
2021/05/13 00:49:35;;;;;;;22.70;15.50;;;;;;;;;;2083268;28;20181;-59
2021/05/13 00:50:35;;;;;;;20.55;17.30;;;;;;;;;;2082368;28;20204;-60
2021/05/13 00:51:36;;;;;;;17.00;13.10;;;;;;;;;;2080780;28;20653;-60
2021/05/13 00:52:36;;;;;;;19.35;13.68;;;;;;;;;;2082539;28;20176;-59
2021/05/13 00:53:38;;;;;;;16.45;12.35;;;;;;;;;;2081949;28;20195;-60
2021/05/13 00:54:42;;;;;;;13.07;11.57;;;;;;;;;;2082196;28;20180;-57
2021/05/13 00:55:42;;;;;;;15.38;11.45;;;;;;;;;;2089425;28;20621;-56
2021/05/13 00:56:42;;;;;;;18.95;12.68;;;;;;;;;;2084115;28;20184;-60
2021/05/13 00:57:45;;;;;;;15.75;10.98;;;;;;;;;;2083494;28;20214;-58
2021/05/13 00:58:48;;;;;;;16.55;11.43;;;;;;;;;;2083213;28;20168;-60
2021/05/13 00:59:52;;;;;;;15.15;12.07;;;;;;;;;;2082968;28;20203;-58
2021/05/13 01:01:05;;;;;;;15.93;11.80;;;;;;;;;;2088307;28;20183;-60
2021/05/13 01:02:05;;;;;;;16.90;12.57;;;;;;;;;;2077760;28;20278;-60
2021/05/13 01:03:06;;;;;;;14.82;12.07;;;;;;;;;;2085004;28;20251;-55
2021/05/13 01:04:06;;;;;;;17.50;11.88;;;;;;;;;;2082791;28;20737;-60
2021/05/13 01:05:07;;;;;;;19.20;12.77;;;;;;;;;;2083659;28;20207;-60
2021/05/13 01:06:09;;;;;;;15.88;11.75;;;;;;;;;;2084142;28;20180;-58
2021/05/13 01:07:10;;;;;;;14.70;12.35;;;;;;;;;;2084150;28;20173;-59
2021/05/13 01:08:10;;;;;;;17.60;13.00;;;;;;;;;;2084060;28;20176;-57
2021/05/13 01:09:11;;;;;;;21.30;13.27;;;;;;;;;;2084207;28;20677;-59
2021/05/13 01:10:12;;;;;;;15.90;11.73;;;;;;;;;;2076481;28;20542;-56
2021/05/13 01:11:14;;;;;;;16.00;12.55;;;;;;;;;;2084926;28;20180;-54
2021/05/13 01:12:17;;;;;;;16.20;12.07;;;;;;;;;;2084722;28;20172;-56
2021/05/13 01:13:21;;;;;;;18.60;12.82;;;;;;;;;;2079081;28;20180;-58
2021/05/13 01:14:29;;;;;;;14.82;11.27;;;;;;;;;;2084863;28;20208;-59
2021/05/13 01:15:39;;;;;;;13.70;11.43;;;;;;;;;;2091534;28;20188;-55
2021/05/13 01:16:50;;;;;;;19.50;11.65;;;;;;;;;;2091481;28;20195;-58
2021/05/13 01:18:06;;;;;;;16.33;11.75;;;;;;;;;;2083772;28;20163;-56
2021/05/13 01:19:07;;;;;;;14.25;10.32;;;;;;;;;;2083952;28;20164;-58
2021/05/13 01:20:08;;;;;;;12.95;11.43;;;;;;;;;;2092650;28;20176;-57
2021/05/13 01:21:13;;;;;;;12.48;11.18;;;;;;;;;;2092630;28;20160;-60
2021/05/13 01:22:14;;;;;;;13.35;11.00;;;;;;;;;;2084636;28;20173;-56
2021/05/13 01:23:15;;;;;;;13.38;10.52;;;;;;;;;;2084922;28;20186;-60
2021/05/13 01:24:15;;;;;;;10.65;9.55;;;;;;;;;;2085995;28;20184;-58
2021/05/13 01:25:16;;;;;;;14.50;10.63;;;;;;;;;;2086368;28;20188;-59
2021/05/13 01:26:18;;;;;;;13.43;9.90;;;;;;;;;;2084591;28;20211;-60
2021/05/13 01:27:19;;;;;;;14.43;9.90;;;;;;;;;;2084370;28;20691;-56
2021/05/13 01:28:20;;;;;;;10.77;9.55;;;;;;;;;;2084892;28;20190;-55
2021/05/13 01:29:21;;;;;;;10.75;9.15;;;;;;;;;;2092542;28;20168;-54
2021/05/13 01:30:21;;;;;;;11.55;9.68;;;;;;;;;;2092322;28;20179;-53
2021/05/13 01:31:22;;;;;;;13.35;9.63;;;;;;;;;;2092318;28;20191;-58
2021/05/13 01:32:22;;;;;;;12.95;8.80;;;;;;;;;;2090194;28;20644;-55
2021/05/13 01:33:23;;;;;;;10.98;8.98;;;;;;;;;;2084259;28;20181;-58
2021/05/13 01:34:24;;;;;;;12.02;8.70;;;;;;;;;;2093417;28;20551;-58
2021/05/13 01:35:24;;;;;;;11.35;9.32;;;;;;;;;;2084136;28;20196;-57
2021/05/13 01:36:24;;;;;;;10.20;8.93;;;;;;;;;;2081710;28;20276;-58
2021/05/13 01:37:24;;;;;;;13.07;9.48;;;;;;;;;;2083356;28;20168;-57
2021/05/13 01:38:25;;;;;;;13.27;10.07;;;;;;;;;;2083438;28;20227;-56
2021/05/13 01:39:25;;;;;;;12.63;9.98;;;;;;;;;;2083948;28;20195;-59
2021/05/13 01:40:25;;;;;;;18.85;11.25;;;;;;;;;;2086119;28;20165;-54
2021/05/13 01:41:26;;;;;;;15.68;10.93;;;;;;;;;;2083919;28;20753;-51
2021/05/13 01:42:26;;;;;;;12.50;10.23;;;;;;;;;;2086263;28;20176;-60
2021/05/13 01:43:31;;;;;;;13.57;10.05;;;;;;;;;;2078572;28;20424;-59
2021/05/13 01:44:31;;;;;;;14.27;11.43;;;;;;;;;;2085906;28;20263;-56
2021/05/13 01:45:32;;;;;;;18.73;11.93;;;;;;;;;;2078201;28;20191;-55
2021/05/13 01:46:32;;;;;;;20.95;12.98;;;;;;;;;;2085014;28;20238;-56
2021/05/13 01:47:36;;;;;;;18.10;11.85;;;;;;;;;;2086193;28;20168;-59
2021/05/13 01:48:36;;;;;;;14.23;10.15;;;;;;;;;;2085529;28;20248;-60
2021/05/13 01:49:36;;;;;;;12.50;9.35;;;;;;;;;;2091492;28;20195;-56
2021/05/13 01:50:37;;;;;;;14.65;10.23;;;;;;;;;;2092075;28;20690;-62
2021/05/13 01:51:37;;;;;;;15.07;9.90;;;;;;;;;;2088663;28;20183;-57
2021/05/13 01:52:37;;;;;;;10.88;9.45;;;;;;;;;;2076190;28;20185;-55
2021/05/13 01:53:38;;;;;;;12.07;9.45;;;;;;;;;;2080623;28;20210;-57
2021/05/13 01:54:38;;;;;;;14.63;9.57;;;;;;;;;;2085051;28;20176;-55
2021/05/13 01:55:39;;;;;;;12.65;9.80;;;;;;;;;;2081587;28;20550;-59
2021/05/13 01:56:39;;;;;;;13.88;10.10;;;;;;;;;;2084423;28;20590;-56
2021/05/13 01:57:39;;;;;;;14.15;10.27;;;;;;;;;;2082539;28;20172;-54
2021/05/13 01:58:40;;;;;;;11.57;9.48;;;;;;;;;;2082245;28;20951;-56
2021/05/13 01:59:40;;;;;;;14.43;9.73;;;;;;;;;;2083793;28;20555;-58
2021/05/13 02:00:43;;;;;;;13.40;10.27;;;;;;;;;;2091423;28;20246;-59
2021/05/13 02:01:43;;;;;;;14.75;10.43;;;;;;;;;;2084961;28;20219;-55
2021/05/13 02:02:45;;;;;;;13.38;10.35;;;;;;;;;;2085006;28;20567;-56
2021/05/13 02:03:45;;;;;;;15.90;10.85;;;;;;;;;;2076678;28;20177;-59
2021/05/13 02:04:45;;;;;;;15.75;10.15;;;;;;;;;;2084225;28;20186;-57
2021/05/13 02:05:46;;;;;;;12.77;10.02;;;;;;;;;;2084095;28;20687;-58
2021/05/13 02:06:46;;;;;;;15.40;10.48;;;;;;;;;;2083547;28;20196;-55
2021/05/13 02:07:46;;;;;;;11.88;9.73;;;;;;;;;;2085116;28;20537;-58
2021/05/13 02:08:46;;;;;;;10.23;9.00;;;;;;;;;;2084809;28;20172;-58
2021/05/13 02:09:47;;;;;;;12.70;9.55;;;;;;;;;;2085364;28;20176;-57
2021/05/13 02:10:47;;;;;;;16.05;9.27;;;;;;;;;;2083125;28;20651;-58
2021/05/13 02:11:47;;;;;;;11.63;8.50;;;;;;;;;;2078833;28;20243;-58
2021/05/13 02:12:48;;;;;;;12.15;8.70;;;;;;;;;;2083685;28;20172;-54
2021/05/13 02:13:49;;;;;;;13.90;8.50;;;;;;;;;;2083192;28;20183;-56
2021/05/13 02:14:49;;;;;;;11.20;8.85;;;;;;;;;;2082931;28;20234;-56
2021/05/13 02:15:49;;;;;;;12.75;8.90;;;;;;;;;;2082956;28;20263;-55
2021/05/13 02:16:49;;;;;;;10.25;8.80;;;;;;;;;;2083627;28;20251;-60
2021/05/13 02:17:50;;;;;;;10.90;8.32;;;;;;;;;;2087670;28;20185;-56
2021/05/13 02:18:50;;;;;;;16.65;9.77;;;;;;;;;;2083646;28;20591;-57
2021/05/13 02:19:51;;;;;;;13.27;9.90;;;;;;;;;;2088082;28;20193;-53
2021/05/13 02:20:51;;;;;;;11.75;9.88;;;;;;;;;;2083478;28;20247;-57
2021/05/13 02:21:51;;;;;;;13.23;9.88;;;;;;;;;;2081208;28;20184;-58
2021/05/13 02:22:53;;;;;;;13.55;9.60;;;;;;;;;;2075879;28;20220;-59
2021/05/13 02:23:54;;;;;;;16.13;10.80;;;;;;;;;;2087844;28;20176;-57
2021/05/13 02:24:55;;;;;;;13.40;11.00;;;;;;;;;;2076257;28;20181;-54
2021/05/13 02:25:56;;;;;;;15.93;11.18;;;;;;;;;;2084066;28;20188;-55
2021/05/13 02:26:56;;;;;;;14.82;10.07;;;;;;;;;;2091244;28;20234;-54
2021/05/13 02:27:56;;;;;;;14.27;11.52;;;;;;;;;;2090667;28;20206;-54
2021/05/13 02:28:57;;;;;;;14.65;10.82;;;;;;;;;;2083571;28;20255;-53
2021/05/13 02:29:57;;;;;;;13.77;11.50;;;;;;;;;;2083138;28;20250;-56
2021/05/13 02:30:57;;;;;;;14.57;11.13;;;;;;;;;;2090990;28;20535;-59
2021/05/13 02:31:57;;;;;;;13.75;11.00;;;;;;;;;;2088689;28;20282;-57
2021/05/13 02:32:58;;;;;;;18.10;11.82;;;;;;;;;;2083405;28;20168;-56
2021/05/13 02:33:58;;;;;;;16.08;11.35;;;;;;;;;;2082466;28;20168;-56
2021/05/13 02:34:58;;;;;;;13.60;10.50;;;;;;;;;;2083679;28;20207;-58
2021/05/13 02:35:58;;;;;;;14.80;10.48;;;;;;;;;;2084043;28;20178;-59
2021/05/13 02:36:59;;;;;;;15.30;10.63;;;;;;;;;;2083070;28;20222;-61
2021/05/13 02:37:59;;;;;;;13.15;10.32;;;;;;;;;;2090578;28;20709;-60
2021/05/13 02:38:59;;;;;;;11.60;9.38;;;;;;;;;;2090723;28;20209;-57
2021/05/13 02:40:00;;;;;;;14.00;9.90;;;;;;;;;;2084451;28;20171;-55
2021/05/13 02:41:00;;;;;;;15.77;10.70;;;;;;;;;;2082430;28;20179;-56
2021/05/13 02:42:00;;;;;;;13.85;10.10;;;;;;;;;;2085621;28;20639;-56
2021/05/13 02:43:03;;;;;;;15.15;9.65;;;;;;;;;;2081763;28;20204;-57
2021/05/13 02:44:03;;;;;;;11.65;10.27;;;;;;;;;;2082033;28;20195;-59
2021/05/13 02:45:05;;;;;;;11.27;9.90;;;;;;;;;;2090963;28;20206;-58
2021/05/13 02:46:05;;;;;;;15.50;11.32;;;;;;;;;;2090770;28;20176;-58
2021/05/13 02:47:05;;;;;;;14.80;11.45;;;;;;;;;;2085666;28;20222;-57
2021/05/13 02:48:06;;;;;;;15.32;10.35;;;;;;;;;;2082223;28;20259;-58
2021/05/13 02:49:06;;;;;;;17.77;11.43;;;;;;;;;;2082372;28;20226;-59
2021/05/13 02:50:08;;;;;;;16.35;11.02;;;;;;;;;;2092406;28;20188;-59
2021/05/13 02:51:08;;;;;;;14.55;11.10;;;;;;;;;;2083259;28;20207;-56
2021/05/13 02:52:08;;;;;;;15.70;10.48;;;;;;;;;;2087171;28;20563;-59
2021/05/13 02:53:09;;;;;;;13.38;10.55;;;;;;;;;;2080156;28;20681;-61
2021/05/13 02:54:09;;;;;;;14.07;11.25;;;;;;;;;;2087100;28;20180;-55
2021/05/13 02:55:09;;;;;;;16.15;12.32;;;;;;;;;;2083331;28;20200;-54
2021/05/13 02:56:10;;;;;;;19.00;12.02;;;;;;;;;;2087328;28;20200;-57
2021/05/13 02:57:11;;;;;;;16.80;12.27;;;;;;;;;;2082965;28;20191;-59
2021/05/13 02:58:11;;;;;;;18.38;12.93;;;;;;;;;;2083753;28;20216;-57
2021/05/13 02:59:13;;;;;;;16.17;12.25;;;;;;;;;;2083148;28;20592;-59
2021/05/13 03:00:33;;;;;;;17.15;12.13;;;;;;;;;;2087904;28;20274;-58
2021/05/13 03:01:33;;;;;;;14.95;11.43;;;;;;;;;;2078357;28;20716;-60
2021/05/13 03:02:33;;;;;;;22.02;12.13;;;;;;;;;;2083182;28;20164;-57
2021/05/13 03:03:34;;;;;;;16.58;12.45;;;;;;;;;;2090140;28;20194;-58
2021/05/13 03:04:34;;;;;;;15.68;12.07;;;;;;;;;;2084176;28;20165;-59
2021/05/13 03:05:34;;;;;;;20.40;12.95;;;;;;;;;;2085135;28;20203;-58
2021/05/13 03:06:37;;;;;;;18.58;11.75;;;;;;;;;;2083227;28;20643;-57
2021/05/13 03:07:45;;;;;;;14.60;11.82;;;;;;;;;;2090749;28;20187;-56
2021/05/13 03:08:47;;;;;;;13.68;11.85;;;;;;;;;;2081647;28;20556;-58
2021/05/13 03:09:57;;;;;;;17.75;13.00;;;;;;;;;;2077551;28;20216;-57
2021/05/13 03:10:57;;;;;;;14.52;12.65;;;;;;;;;;2082544;28;20249;-57
2021/05/13 03:11:57;;;;;;;21.67;12.80;;;;;;;;;;2089450;28;20172;-58
2021/05/13 03:12:57;;;;;;;17.73;12.57;;;;;;;;;;2082871;28;20172;-59
2021/05/13 03:14:01;;;;;;;18.40;13.07;;;;;;;;;;2082119;28;20257;-59
2021/05/13 03:15:01;;;;;;;18.10;13.25;;;;;;;;;;2082158;28;20219;-58
2021/05/13 03:16:01;;;;;;;16.42;13.60;;;;;;;;;;2092996;28;20273;-59
2021/05/13 03:17:02;;;;;;;14.40;12.50;;;;;;;;;;2096391;28;20174;-56
2021/05/13 03:18:03;;;;;;;20.95;13.05;;;;;;;;;;2083318;28;20250;-58
2021/05/13 03:19:04;;;;;;;15.55;13.88;;;;;;;;;;2083461;28;20176;-58
2021/05/13 03:20:05;;;;;;;18.85;14.13;;;;;;;;;;2083576;28;20271;-55
2021/05/13 03:21:13;;;;;;;18.88;13.38;;;;;;;;;;2085650;28;20709;-59
2021/05/13 03:22:17;;;;;;;19.67;13.35;;;;;;;;;;2083346;28;20156;-58
2021/05/13 03:23:23;;;;;;;20.48;14.30;;;;;;;;;;2082410;28;20187;-59
2021/05/13 03:25:46;;;;;;;20.17;13.63;;;;;;;;;;2082259;28;20226;-58
2021/05/13 03:27:53;;;;;;;16.48;12.85;;;;;;;;;;2082646;28;20176;-57
2021/05/13 03:28:53;;;;;;;16.63;12.40;;;;;;;;;;2080723;28;20167;-58
2021/05/13 03:29:54;;;;;;;17.90;12.95;;;;;;;;;;2083331;28;20548;-59
2021/05/13 03:30:55;;;;;;;18.98;13.27;;;;;;;;;;2090367;28;20215;-58
2021/05/13 03:31:55;;;;;;;20.05;13.48;;;;;;;;;;2090547;28;20217;-54
2021/05/13 03:32:55;;;;;;;19.13;13.00;;;;;;;;;;2082194;28;20186;-58
2021/05/13 03:33:55;;;;;;;19.48;12.52;;;;;;;;;;2086296;28;20172;-57
2021/05/13 03:34:56;;;;;;;17.58;13.13;;;;;;;;;;2090441;28;20175;-58
2021/05/13 03:35:56;;;;;;;19.67;14.73;;;;;;;;;;2082841;28;20172;-58
2021/05/13 03:36:56;;;;;;;19.52;14.52;;;;;;;;;;2086124;28;20190;-58
2021/05/13 03:37:56;;;;;;;23.15;14.85;;;;;;;;;;2081964;28;20206;-58
2021/05/13 03:39:02;;;;;;;16.15;13.77;;;;;;;;;;2082421;28;20758;-59
2021/05/13 03:40:02;;;;;;;17.67;13.70;;;;;;;;;;2084026;28;20598;-59
2021/05/13 03:41:03;;;;;;;21.38;14.52;;;;;;;;;;2080987;28;20168;-55
2021/05/13 03:42:03;;;;;;;18.35;13.30;;;;;;;;;;2081966;28;20207;-59
2021/05/13 03:43:03;;;;;;;19.77;13.32;;;;;;;;;;2091005;28;20160;-56
2021/05/13 03:44:04;;;;;;;19.02;14.23;;;;;;;;;;2089818;28;20176;-60
2021/05/13 03:45:05;;;;;;;20.98;14.88;;;;;;;;;;2087718;28;20285;-59
2021/05/13 03:46:06;;;;;;;20.50;14.95;;;;;;;;;;2094913;28;20189;-58
2021/05/13 03:47:06;;;;;;;18.88;14.43;;;;;;;;;;2094410;28;20183;-59
2021/05/13 03:48:06;;;;;;;24.05;14.63;;;;;;;;;;2082322;28;20168;-59
2021/05/13 03:49:06;;;;;;;16.88;14.20;;;;;;;;;;2090471;28;20298;-60
2021/05/13 03:50:07;;;;;;;20.98;13.35;;;;;;;;;;2089514;28;20175;-58
2021/05/13 03:51:07;;;;;;;16.13;12.20;;;;;;;;;;2085239;28;20237;-57
2021/05/13 03:52:08;;;;;;;18.10;13.75;;;;;;;;;;2082478;28;20208;-59
2021/05/13 03:53:08;;;;;;;18.45;12.38;;;;;;;;;;2081953;28;20176;-56
2021/05/13 03:54:09;;;;;;;13.82;12.05;;;;;;;;;;2082542;28;20177;-55
2021/05/13 03:55:10;;;;;;;15.48;12.63;;;;;;;;;;2088391;28;20204;-61
2021/05/13 03:56:12;;;;;;;15.27;13.07;;;;;;;;;;2082773;28;20175;-60
2021/05/13 03:57:12;;;;;;;17.33;12.45;;;;;;;;;;2087363;28;20214;-57
2021/05/13 03:58:13;;;;;;;16.48;12.15;;;;;;;;;;2083061;28;20652;-58
2021/05/13 03:59:18;;;;;;;16.95;12.05;;;;;;;;;;2088278;28;20191;-60
2021/05/13 04:00:26;;;;;;;18.08;12.38;;;;;;;;;;2082763;28;20180;-59
2021/05/13 04:03:30;;;;;;;15.38;12.70;;;;;;;;;;2089327;28;20172;-58
2021/05/13 04:04:30;;;;;;;14.93;11.45;;;;;;;;;;2082144;28;20615;-61
2021/05/13 04:05:30;;;;;;;15.25;11.63;;;;;;;;;;2083943;28;20196;-52
2021/05/13 04:06:31;;;;;;;18.83;10.95;;;;;;;;;;2084361;28;20183;-58
2021/05/13 04:07:36;;;;;;;16.45;11.68;;;;;;;;;;2082838;28;20181;-58
2021/05/13 04:08:36;;;;;;;15.43;11.52;;;;;;;;;;2081149;28;20168;-58
2021/05/13 04:09:36;;;;;;;12.90;10.90;;;;;;;;;;2091083;28;20258;-57
2021/05/13 04:10:37;;;;;;;14.85;11.20;;;;;;;;;;2091585;28;20296;-59
2021/05/13 04:11:38;;;;;;;15.10;11.13;;;;;;;;;;2083985;28;20183;-59
2021/05/13 04:12:39;;;;;;;16.15;11.48;;;;;;;;;;2084367;28;20179;-59
2021/05/13 04:13:40;;;;;;;12.38;10.70;;;;;;;;;;2083694;28;20664;-59
2021/05/13 04:14:41;;;;;;;15.20;10.63;;;;;;;;;;2084871;28;20200;-60
2021/05/13 04:15:44;;;;;;;12.80;11.18;;;;;;;;;;2080011;28;20663;-54
2021/05/13 04:16:51;;;;;;;17.17;12.00;;;;;;;;;;2082751;28;20521;-57
2021/05/13 04:17:51;;;;;;;19.05;12.43;;;;;;;;;;2079366;28;20185;-57
2021/05/13 04:18:51;;;;;;;15.35;11.20;;;;;;;;;;2090011;28;20199;-58
2021/05/13 04:19:52;;;;;;;16.10;12.15;;;;;;;;;;2090013;28;20178;-57
2021/05/13 04:20:52;;;;;;;16.05;11.45;;;;;;;;;;2076865;28;20259;-61
2021/05/13 04:21:52;;;;;;;13.05;11.40;;;;;;;;;;2085108;28;20171;-57
2021/05/13 04:22:52;;;;;;;15.38;11.50;;;;;;;;;;2084096;28;20490;-55
2021/05/13 04:23:53;;;;;;;13.70;11.85;;;;;;;;;;2082550;28;20234;-60
2021/05/13 04:24:53;;;;;;;17.60;12.00;;;;;;;;;;2090768;28;20166;-58
2021/05/13 04:25:53;;;;;;;13.07;11.70;;;;;;;;;;2090307;28;20199;-62
2021/05/13 04:26:53;;;;;;;13.30;10.88;;;;;;;;;;2082540;28;20164;-59
2021/05/13 04:27:54;;;;;;;13.52;10.60;;;;;;;;;;2083019;28;20188;-58
2021/05/13 04:28:54;;;;;;;14.93;11.55;;;;;;;;;;2082275;28;20227;-55
2021/05/13 04:29:54;;;;;;;13.85;11.50;;;;;;;;;;2082750;28;20587;-57
2021/05/13 04:30:55;;;;;;;14.55;11.63;;;;;;;;;;2081006;28;20184;-55
2021/05/13 04:31:55;;;;;;;14.23;11.80;;;;;;;;;;2082806;28;20595;-56
2021/05/13 04:32:55;;;;;;;14.43;12.20;;;;;;;;;;2082963;28;20165;-59
2021/05/13 04:33:55;;;;;;;20.45;13.60;;;;;;;;;;2082469;28;20529;-57
2021/05/13 04:34:56;;;;;;;19.20;13.25;;;;;;;;;;2082969;28;20632;-55
2021/05/13 04:35:56;;;;;;;18.33;13.45;;;;;;;;;;2082697;28;20219;-60
2021/05/13 04:36:56;;;;;;;16.15;12.77;;;;;;;;;;2083190;28;20176;-59
2021/05/13 04:37:57;;;;;;;17.48;12.90;;;;;;;;;;2082949;28;20184;-60
2021/05/13 04:38:57;;;;;;;15.05;11.30;;;;;;;;;;2083159;28;20460;-56
2021/05/13 04:39:57;;;;;;;12.43;10.52;;;;;;;;;;2084611;28;20211;-58
2021/05/13 04:40:58;;;;;;;15.55;11.00;;;;;;;;;;2081147;28;20180;-58
2021/05/13 04:41:59;;;;;;;12.52;10.55;;;;;;;;;;2079784;28;20179;-58
2021/05/13 04:42:59;;;;;;;13.35;10.05;;;;;;;;;;2082550;28;20178;-60
2021/05/13 04:44:01;;;;;;;17.55;10.57;;;;;;;;;;2082034;28;20175;-58
2021/05/13 04:45:01;;;;;;;15.48;11.45;;;;;;;;;;2090268;28;20650;-59
2021/05/13 04:46:02;;;;;;;14.55;11.20;;;;;;;;;;2090117;28;20160;-57
2021/05/13 04:47:19;;;;;;;13.60;12.18;;;;;;;;;;2081954;28;20172;-57
2021/05/13 04:48:21;;;;;;;13.52;12.25;;;;;;;;;;2081778;28;20180;-57
2021/05/13 04:49:22;;;;;;;15.90;11.98;;;;;;;;;;2090032;28;20163;-57
2021/05/13 04:50:22;;;;;;;16.48;12.38;;;;;;;;;;2090578;28;20801;-54
2021/05/13 04:51:27;;;;;;;15.13;11.90;;;;;;;;;;2081842;28;20168;-57
2021/05/13 04:52:28;;;;;;;12.50;11.13;;;;;;;;;;2082047;28;20164;-57
2021/05/13 04:53:28;;;;;;;15.50;10.98;;;;;;;;;;2082084;28;20171;-56
2021/05/13 04:54:28;;;;;;;13.88;11.38;;;;;;;;;;2082676;28;20194;-58
2021/05/13 04:55:28;;;;;;;12.32;10.63;;;;;;;;;;2082447;28;20192;-58
2021/05/13 04:56:29;;;;;;;14.60;10.90;;;;;;;;;;2081286;28;20218;-57
2021/05/13 04:57:30;;;;;;;11.70;10.43;;;;;;;;;;2082087;28;20523;-54
2021/05/13 04:58:30;;;;;;;14.23;10.70;;;;;;;;;;2082138;28;20274;-58
2021/05/13 04:59:30;;;;;;;13.73;11.27;;;;;;;;;;2082730;28;20180;-60
2021/05/13 05:00:31;;;;;;;16.38;11.30;;;;;;;;;;2089423;28;20164;-57
2021/05/13 05:01:31;;;;;;;11.65;9.50;;;;;;;;;;2089818;28;20163;-57
2021/05/13 05:02:31;;;;;;;13.38;11.98;;;;;;;;;;2082556;28;20184;-57
2021/05/13 05:03:32;;;;;;;16.27;12.40;;;;;;;;;;2081750;28;20172;-55
2021/05/13 05:04:32;;;;;;;14.20;11.23;;;;;;;;;;2082501;28;20575;-57
2021/05/13 05:05:32;;;;;;;14.93;11.07;;;;;;;;;;2082219;28;20204;-56
2021/05/13 05:06:33;;;;;;;14.63;10.27;;;;;;;;;;2082340;28;20183;-52
2021/05/13 05:07:33;;;;;;;14.48;11.15;;;;;;;;;;2090235;28;20206;-56
2021/05/13 05:08:33;;;;;;;13.85;10.93;;;;;;;;;;2090448;28;20307;-59
2021/05/13 05:09:34;;;;;;;16.50;11.45;;;;;;;;;;2080986;28;20160;-56
2021/05/13 05:10:34;;;;;;;13.20;10.13;;;;;;;;;;2080695;28;20579;-59
2021/05/13 05:11:35;;;;;;;14.88;11.02;;;;;;;;;;2082026;28;20179;-57
2021/05/13 05:12:35;;;;;;;15.43;10.75;;;;;;;;;;2081429;28;20172;-59
2021/05/13 05:13:35;;;;;;;15.52;11.55;;;;;;;;;;2080165;28;20168;-57
2021/05/13 05:14:36;;;;;;;13.70;10.73;;;;;;;;;;2081549;28;20176;-57
2021/05/13 05:15:36;;;;;;;19.65;12.77;;;;;;;;;;2090185;28;20480;-60
2021/05/13 05:16:36;;;;;;;15.95;12.18;;;;;;;;;;2091858;28;20262;-60
2021/05/13 05:17:37;;;;;;;18.33;12.10;;;;;;;;;;2083337;28;20176;-57
2021/05/13 05:18:37;;;;;;;14.23;11.18;;;;;;;;;;2083565;28;20204;-58
2021/05/13 05:19:37;;;;;;;13.20;11.10;;;;;;;;;;2084563;28;20180;-59
2021/05/13 05:20:38;;;;;;;12.77;10.95;;;;;;;;;;2082375;28;20172;-59
2021/05/13 05:21:38;;;;;;;12.43;11.13;;;;;;;;;;2081288;28;20179;-59
2021/05/13 05:22:38;;;;;;;13.40;9.88;;;;;;;;;;2081260;28;20643;-61
2021/05/13 05:23:39;;;;;;;10.60;9.45;;;;;;;;;;2081739;28;20180;-57
2021/05/13 05:24:39;;;;;;;11.15;9.40;;;;;;;;;;2087441;28;20640;-58
2021/05/13 05:25:39;;;;;;;16.63;10.02;;;;;;;;;;2083738;28;20660;-54
2021/05/13 05:26:39;;;;;;;9.50;8.60;;;;;;;;;;2081976;28;20537;-57
2021/05/13 05:27:40;;;;;;;12.02;8.85;;;;;;;;;;2081989;28;20184;-57
2021/05/13 05:28:40;;;;;;;12.80;9.52;;;;;;;;;;2075053;28;20193;-57
2021/05/13 05:29:40;;;;;;;10.63;9.32;;;;;;;;;;2087180;28;20179;-58
2021/05/13 05:30:41;;;;;;;10.55;9.25;;;;;;;;;;2082447;28;20370;-59
2021/05/13 05:31:41;;;;;;;11.80;10.60;;;;;;;;;;2080612;28;20676;-58
2021/05/13 05:32:42;;;;;;;11.85;9.48;;;;;;;;;;2096183;28;20249;-58
2021/05/13 05:33:42;;;;;;;14.27;11.20;;;;;;;;;;2089533;28;20194;-60
2021/05/13 05:34:42;;;;;;;14.00;10.48;;;;;;;;;;2074064;28;20584;-58
2021/05/13 05:35:43;;;;;;;12.75;10.80;;;;;;;;;;2081670;28;20200;-58
2021/05/13 05:36:43;;;;;;;12.18;10.15;;;;;;;;;;2082364;28;20216;-54
2021/05/13 05:37:43;;;;;;;10.38;9.25;;;;;;;;;;2081664;28;20246;-59
2021/05/13 05:38:44;;;;;;;13.40;9.90;;;;;;;;;;2084394;28;20175;-58
2021/05/13 05:39:44;;;;;;;10.88;9.52;;;;;;;;;;2092357;28;20190;-61
2021/05/13 05:40:44;;;;;;;14.30;9.50;;;;;;;;;;2083207;28;20168;-60
2021/05/13 05:41:44;;;;;;;11.02;9.30;;;;;;;;;;2083336;28;20204;-61
2021/05/13 05:42:45;;;;;;;10.00;9.00;;;;;;;;;;2083786;28;20276;-60
2021/05/13 05:43:45;;;;;;;13.40;9.93;;;;;;;;;;2082833;28;20175;-57
2021/05/13 05:44:45;;;;;;;12.32;9.45;;;;;;;;;;2084595;28;20251;-59
2021/05/13 05:45:46;;;;;;;16.45;10.05;;;;;;;;;;2083680;28;20722;-59
2021/05/13 05:46:46;;;;;;;15.57;10.90;;;;;;;;;;2084899;28;20168;-59
2021/05/13 05:47:47;;;;;;;14.40;12.32;;;;;;;;;;2084224;28;20196;-55
2021/05/13 05:48:47;;;;;;;12.85;10.27;;;;;;;;;;2083512;28;20230;-57
2021/05/13 05:49:47;;;;;;;11.45;10.13;;;;;;;;;;2090250;28;20180;-59
2021/05/13 05:50:48;;;;;;;11.52;10.00;;;;;;;;;;2083599;28;20176;-60
2021/05/13 05:51:48;;;;;;;11.20;9.88;;;;;;;;;;2087733;28;20573;-57
2021/05/13 05:52:48;;;;;;;14.90;9.88;;;;;;;;;;2082478;28;20183;-59
2021/05/13 05:53:48;;;;;;;10.80;9.13;;;;;;;;;;2082106;28;20207;-59
2021/05/13 05:54:49;;;;;;;13.75;10.18;;;;;;;;;;2079907;28;20176;-58
2021/05/13 05:55:49;;;;;;;15.05;10.43;;;;;;;;;;2076301;28;20176;-62
2021/05/13 05:56:49;;;;;;;13.55;11.45;;;;;;;;;;2083727;28;20520;-60
2021/05/13 05:57:50;;;;;;;15.05;11.73;;;;;;;;;;2083832;28;20587;-60
2021/05/13 05:58:50;;;;;;;14.15;11.48;;;;;;;;;;2083710;28;20176;-57
2021/05/13 05:59:51;;;;;;;13.88;11.73;;;;;;;;;;2084217;28;20168;-60
2021/05/13 06:00:51;;;;;;;16.08;10.55;;;;;;;;;;2082155;28;20183;-62
2021/05/13 06:01:51;;;;;;;16.45;11.32;;;;;;;;;;2083937;28;20528;-61